sensor_id;sensor_type;location;lat;lon;timestamp;P1;durP1;ratioP1;P2;durP2;ratioP2
10232;SDS011;5161;48.174;11.756;2023-06-22T00:01:52;7.67;;;5.80;;
10232;SDS011;5161;48.174;11.756;2023-06-22T00:04:18;7.10;;;6.10;;
10232;SDS011;5161;48.174;11.756;2023-06-22T00:06:44;7.50;;;5.60;;
10232;SDS011;5161;48.174;11.756;2023-06-22T00:09:09;9.63;;;5.87;;
10232;SDS011;5161;48.174;11.756;2023-06-22T00:11:35;7.70;;;5.57;;
10232;SDS011;5161;48.174;11.756;2023-06-22T00:14:02;7.80;;;5.80;;
10232;SDS011;5161;48.174;11.756;2023-06-22T00:16:28;7.27;;;5.73;;
10232;SDS011;5161;48.174;11.756;2023-06-22T00:18:53;9.53;;;6.50;;
10232;SDS011;5161;48.174;11.756;2023-06-22T00:21:19;6.10;;;5.30;;
10232;SDS011;5161;48.174;11.756;2023-06-22T00:23:47;8.00;;;5.87;;
10232;SDS011;5161;48.174;11.756;2023-06-22T00:26:13;7.90;;;6.10;;
10232;SDS011;5161;48.174;11.756;2023-06-22T00:28:39;9.83;;;5.83;;
10232;SDS011;5161;48.174;11.756;2023-06-22T00:31:04;9.00;;;5.95;;
10232;SDS011;5161;48.174;11.756;2023-06-22T00:33:30;7.60;;;5.80;;
10232;SDS011;5161;48.174;11.756;2023-06-22T00:35:56;7.33;;;5.90;;
10232;SDS011;5161;48.174;11.756;2023-06-22T00:38:22;7.07;;;5.87;;
10232;SDS011;5161;48.174;11.756;2023-06-22T00:40:47;9.17;;;6.00;;
10232;SDS011;5161;48.174;11.756;2023-06-22T00:43:13;7.27;;;5.83;;
10232;SDS011;5161;48.174;11.756;2023-06-22T00:45:38;7.10;;;6.20;;
10232;SDS011;5161;48.174;11.756;2023-06-22T00:48:05;8.63;;;6.33;;
10232;SDS011;5161;48.174;11.756;2023-06-22T00:50:32;7.53;;;5.97;;
10232;SDS011;5161;48.174;11.756;2023-06-22T00:52:59;8.50;;;5.67;;
10232;SDS011;5161;48.174;11.756;2023-06-22T00:55:32;7.63;;;5.53;;
10232;SDS011;5161;48.174;11.756;2023-06-22T00:58:10;11.10;;;5.80;;
10232;SDS011;5161;48.174;11.756;2023-06-22T01:00:37;7.90;;;5.47;;
10232;SDS011;5161;48.174;11.756;2023-06-22T01:03:03;8.93;;;5.73;;
10232;SDS011;5161;48.174;11.756;2023-06-22T01:05:33;8.53;;;5.53;;
10232;SDS011;5161;48.174;11.756;2023-06-22T01:08:15;7.77;;;5.53;;
10232;SDS011;5161;48.174;11.756;2023-06-22T01:10:59;6.93;;;5.30;;
10232;SDS011;5161;48.174;11.756;2023-06-22T01:16:19;8.10;;;5.33;;
10232;SDS011;5161;48.174;11.756;2023-06-22T01:18:49;7.27;;;6.10;;
10232;SDS011;5161;48.174;11.756;2023-06-22T01:21:18;7.87;;;5.50;;
10232;SDS011;5161;48.174;11.756;2023-06-22T01:24:28;7.77;;;6.13;;
10232;SDS011;5161;48.174;11.756;2023-06-22T01:29:24;7.53;;;5.47;;
10232;SDS011;5161;48.174;11.756;2023-06-22T01:31:52;9.93;;;6.03;;
10232;SDS011;5161;48.174;11.756;2023-06-22T01:34:21;9.10;;;6.33;;
10232;SDS011;5161;48.174;11.756;2023-06-22T01:36:48;10.00;;;6.30;;
10232;SDS011;5161;48.174;11.756;2023-06-22T01:39:14;7.60;;;5.70;;
10232;SDS011;5161;48.174;11.756;2023-06-22T01:41:40;7.60;;;6.07;;
10232;SDS011;5161;48.174;11.756;2023-06-22T01:44:07;8.47;;;6.17;;
10232;SDS011;5161;48.174;11.756;2023-06-22T01:46:35;12.37;;;6.03;;
10232;SDS011;5161;48.174;11.756;2023-06-22T01:49:02;7.23;;;6.03;;
10232;SDS011;5161;48.174;11.756;2023-06-22T01:51:28;8.77;;;6.20;;
10232;SDS011;5161;48.174;11.756;2023-06-22T01:53:55;7.53;;;5.70;;
10232;SDS011;5161;48.174;11.756;2023-06-22T01:56:20;9.30;;;6.23;;
10232;SDS011;5161;48.174;11.756;2023-06-22T01:58:50;6.03;;;5.50;;
10232;SDS011;5161;48.174;11.756;2023-06-22T02:01:24;9.87;;;6.27;;
10232;SDS011;5161;48.174;11.756;2023-06-22T02:04:03;10.07;;;5.70;;
10232;SDS011;5161;48.174;11.756;2023-06-22T02:06:51;10.43;;;5.70;;
10232;SDS011;5161;48.174;11.756;2023-06-22T02:09:22;9.50;;;6.17;;
10232;SDS011;5161;48.174;11.756;2023-06-22T02:11:50;7.87;;;5.70;;
10232;SDS011;5161;48.174;11.756;2023-06-22T02:14:18;8.27;;;6.30;;
10232;SDS011;5161;48.174;11.756;2023-06-22T02:16:44;8.03;;;5.77;;
10232;SDS011;5161;48.174;11.756;2023-06-22T02:19:10;11.33;;;6.70;;
10232;SDS011;5161;48.174;11.756;2023-06-22T02:21:36;10.23;;;6.60;;
10232;SDS011;5161;48.174;11.756;2023-06-22T02:24:03;12.07;;;6.80;;
10232;SDS011;5161;48.174;11.756;2023-06-22T02:26:29;10.57;;;6.77;;
10232;SDS011;5161;48.174;11.756;2023-06-22T02:28:56;9.63;;;6.93;;
10232;SDS011;5161;48.174;11.756;2023-06-22T02:31:22;10.80;;;6.93;;
10232;SDS011;5161;48.174;11.756;2023-06-22T02:33:55;12.73;;;6.77;;
10232;SDS011;5161;48.174;11.756;2023-06-22T02:36:23;10.93;;;6.63;;
10232;SDS011;5161;48.174;11.756;2023-06-22T02:38:49;9.97;;;6.57;;
10232;SDS011;5161;48.174;11.756;2023-06-22T02:41:15;10.63;;;6.70;;
10232;SDS011;5161;48.174;11.756;2023-06-22T02:43:44;8.63;;;6.50;;
10232;SDS011;5161;48.174;11.756;2023-06-22T02:46:10;8.20;;;6.90;;
10232;SDS011;5161;48.174;11.756;2023-06-22T02:48:37;9.63;;;7.20;;
10232;SDS011;5161;48.174;11.756;2023-06-22T02:51:04;8.93;;;6.60;;
10232;SDS011;5161;48.174;11.756;2023-06-22T02:53:29;9.70;;;7.00;;
10232;SDS011;5161;48.174;11.756;2023-06-22T02:55:55;10.47;;;7.13;;
10232;SDS011;5161;48.174;11.756;2023-06-22T02:58:21;9.77;;;6.63;;
10232;SDS011;5161;48.174;11.756;2023-06-22T03:00:46;10.27;;;7.00;;
10232;SDS011;5161;48.174;11.756;2023-06-22T03:03:12;8.00;;;6.93;;
10232;SDS011;5161;48.174;11.756;2023-06-22T03:05:37;7.13;;;6.43;;
10232;SDS011;5161;48.174;11.756;2023-06-22T03:08:05;8.57;;;5.90;;
10232;SDS011;5161;48.174;11.756;2023-06-22T03:10:30;9.93;;;6.30;;
10232;SDS011;5161;48.174;11.756;2023-06-22T03:12:56;8.73;;;6.13;;
10232;SDS011;5161;48.174;11.756;2023-06-22T03:15:21;7.33;;;6.53;;
10232;SDS011;5161;48.174;11.756;2023-06-22T03:17:47;9.53;;;6.27;;
10232;SDS011;5161;48.174;11.756;2023-06-22T03:20:13;8.30;;;6.50;;
10232;SDS011;5161;48.174;11.756;2023-06-22T03:22:39;9.37;;;6.63;;
10232;SDS011;5161;48.174;11.756;2023-06-22T03:25:06;8.50;;;6.70;;
10232;SDS011;5161;48.174;11.756;2023-06-22T03:27:35;8.90;;;6.73;;
10232;SDS011;5161;48.174;11.756;2023-06-22T03:30:05;11.63;;;7.13;;
10232;SDS011;5161;48.174;11.756;2023-06-22T03:32:32;12.10;;;6.93;;
10232;SDS011;5161;48.174;11.756;2023-06-22T03:34:57;11.90;;;7.33;;
10232;SDS011;5161;48.174;11.756;2023-06-22T03:37:24;7.90;;;6.37;;
10232;SDS011;5161;48.174;11.756;2023-06-22T03:39:50;11.93;;;7.00;;
10232;SDS011;5161;48.174;11.756;2023-06-22T03:42:16;12.60;;;7.17;;
10232;SDS011;5161;48.174;11.756;2023-06-22T03:44:42;9.47;;;6.80;;
10232;SDS011;5161;48.174;11.756;2023-06-22T03:47:08;12.43;;;7.30;;
10232;SDS011;5161;48.174;11.756;2023-06-22T03:49:34;10.57;;;6.80;;
10232;SDS011;5161;48.174;11.756;2023-06-22T03:52:00;10.97;;;7.47;;
10232;SDS011;5161;48.174;11.756;2023-06-22T03:54:27;10.00;;;7.33;;
10232;SDS011;5161;48.174;11.756;2023-06-22T03:56:54;10.93;;;7.00;;
10232;SDS011;5161;48.174;11.756;2023-06-22T03:59:19;9.53;;;7.43;;
10232;SDS011;5161;48.174;11.756;2023-06-22T04:01:45;8.20;;;7.23;;
10232;SDS011;5161;48.174;11.756;2023-06-22T04:04:11;9.33;;;7.17;;
10232;SDS011;5161;48.174;11.756;2023-06-22T04:06:37;9.73;;;7.03;;
10232;SDS011;5161;48.174;11.756;2023-06-22T04:09:03;7.93;;;6.70;;
10232;SDS011;5161;48.174;11.756;2023-06-22T04:11:28;15.43;;;7.63;;
10232;SDS011;5161;48.174;11.756;2023-06-22T04:13:54;9.27;;;6.90;;
10232;SDS011;5161;48.174;11.756;2023-06-22T04:16:20;10.00;;;7.00;;
10232;SDS011;5161;48.174;11.756;2023-06-22T04:18:46;13.87;;;7.93;;
10232;SDS011;5161;48.174;11.756;2023-06-22T04:21:11;12.87;;;7.60;;
10232;SDS011;5161;48.174;11.756;2023-06-22T04:23:38;12.77;;;7.90;;
10232;SDS011;5161;48.174;11.756;2023-06-22T04:26:03;12.37;;;7.70;;
10232;SDS011;5161;48.174;11.756;2023-06-22T04:28:29;13.47;;;7.90;;
10232;SDS011;5161;48.174;11.756;2023-06-22T04:30:59;10.40;;;7.47;;
10232;SDS011;5161;48.174;11.756;2023-06-22T04:33:28;10.57;;;7.70;;
10232;SDS011;5161;48.174;11.756;2023-06-22T04:35:57;12.53;;;7.67;;
10232;SDS011;5161;48.174;11.756;2023-06-22T04:38:23;14.37;;;7.60;;
10232;SDS011;5161;48.174;11.756;2023-06-22T04:40:49;8.57;;;7.73;;
10232;SDS011;5161;48.174;11.756;2023-06-22T04:43:15;8.67;;;7.50;;
10232;SDS011;5161;48.174;11.756;2023-06-22T04:45:41;13.80;;;7.87;;
10232;SDS011;5161;48.174;11.756;2023-06-22T04:48:07;14.13;;;8.60;;
10232;SDS011;5161;48.174;11.756;2023-06-22T04:50:34;9.63;;;8.17;;
10232;SDS011;5161;48.174;11.756;2023-06-22T04:53:03;10.57;;;7.73;;
10232;SDS011;5161;48.174;11.756;2023-06-22T04:55:31;11.00;;;8.03;;
10232;SDS011;5161;48.174;11.756;2023-06-22T04:57:57;9.23;;;7.90;;
10232;SDS011;5161;48.174;11.756;2023-06-22T05:00:29;16.77;;;7.73;;
10232;SDS011;5161;48.174;11.756;2023-06-22T05:02:55;9.80;;;7.33;;
10232;SDS011;5161;48.174;11.756;2023-06-22T05:05:22;10.73;;;7.77;;
10232;SDS011;5161;48.174;11.756;2023-06-22T05:07:49;10.13;;;7.37;;
10232;SDS011;5161;48.174;11.756;2023-06-22T05:10:17;10.53;;;7.67;;
10232;SDS011;5161;48.174;11.756;2023-06-22T05:12:43;10.50;;;7.60;;
10232;SDS011;5161;48.174;11.756;2023-06-22T05:15:09;9.90;;;7.60;;
10232;SDS011;5161;48.174;11.756;2023-06-22T05:17:35;11.97;;;7.67;;
10232;SDS011;5161;48.174;11.756;2023-06-22T05:20:07;14.93;;;8.43;;
10232;SDS011;5161;48.174;11.756;2023-06-22T05:22:34;8.93;;;7.50;;
10232;SDS011;5161;48.174;11.756;2023-06-22T05:25:00;9.67;;;8.03;;
10232;SDS011;5161;48.174;11.756;2023-06-22T05:27:25;15.00;;;8.17;;
10232;SDS011;5161;48.174;11.756;2023-06-22T05:29:51;13.50;;;8.23;;
10232;SDS011;5161;48.174;11.756;2023-06-22T05:32:16;12.30;;;8.27;;
10232;SDS011;5161;48.174;11.756;2023-06-22T05:34:42;14.07;;;8.40;;
10232;SDS011;5161;48.174;11.756;2023-06-22T05:37:08;14.97;;;7.90;;
10232;SDS011;5161;48.174;11.756;2023-06-22T05:39:34;11.37;;;7.90;;
10232;SDS011;5161;48.174;11.756;2023-06-22T05:42:02;13.53;;;7.53;;
10232;SDS011;5161;48.174;11.756;2023-06-22T05:44:30;13.77;;;7.57;;
10232;SDS011;5161;48.174;11.756;2023-06-22T05:46:55;11.13;;;7.30;;
10232;SDS011;5161;48.174;11.756;2023-06-22T05:49:21;13.13;;;7.97;;
10232;SDS011;5161;48.174;11.756;2023-06-22T05:51:47;15.53;;;7.67;;
10232;SDS011;5161;48.174;11.756;2023-06-22T05:54:13;10.17;;;7.53;;
10232;SDS011;5161;48.174;11.756;2023-06-22T05:56:40;13.30;;;7.73;;
10232;SDS011;5161;48.174;11.756;2023-06-22T05:59:06;14.70;;;8.23;;
10232;SDS011;5161;48.174;11.756;2023-06-22T06:01:31;17.27;;;8.23;;
10232;SDS011;5161;48.174;11.756;2023-06-22T06:04:01;11.50;;;7.47;;
10232;SDS011;5161;48.174;11.756;2023-06-22T06:06:28;14.03;;;7.97;;
10232;SDS011;5161;48.174;11.756;2023-06-22T06:08:54;10.53;;;7.90;;
10232;SDS011;5161;48.174;11.756;2023-06-22T06:11:21;11.70;;;7.37;;
10232;SDS011;5161;48.174;11.756;2023-06-22T06:13:46;10.10;;;7.23;;
10232;SDS011;5161;48.174;11.756;2023-06-22T06:16:12;13.23;;;8.33;;
10232;SDS011;5161;48.174;11.756;2023-06-22T06:18:38;11.13;;;8.00;;
10232;SDS011;5161;48.174;11.756;2023-06-22T06:21:03;11.70;;;8.40;;
10232;SDS011;5161;48.174;11.756;2023-06-22T06:23:29;11.57;;;8.20;;
10232;SDS011;5161;48.174;11.756;2023-06-22T06:25:54;15.90;;;9.03;;
10232;SDS011;5161;48.174;11.756;2023-06-22T06:28:20;14.50;;;8.90;;
10232;SDS011;5161;48.174;11.756;2023-06-22T06:30:46;14.70;;;8.07;;
10232;SDS011;5161;48.174;11.756;2023-06-22T06:33:12;11.40;;;8.03;;
10232;SDS011;5161;48.174;11.756;2023-06-22T06:35:38;13.50;;;8.30;;
10232;SDS011;5161;48.174;11.756;2023-06-22T06:38:03;12.37;;;8.83;;
10232;SDS011;5161;48.174;11.756;2023-06-22T06:40:29;13.57;;;8.77;;
10232;SDS011;5161;48.174;11.756;2023-06-22T06:42:55;15.13;;;9.27;;
10232;SDS011;5161;48.174;11.756;2023-06-22T06:45:21;8.83;;;7.93;;
10232;SDS011;5161;48.174;11.756;2023-06-22T06:47:48;14.60;;;8.50;;
10232;SDS011;5161;48.174;11.756;2023-06-22T06:50:15;15.90;;;9.07;;
10232;SDS011;5161;48.174;11.756;2023-06-22T06:52:41;13.03;;;8.37;;
10232;SDS011;5161;48.174;11.756;2023-06-22T06:55:07;13.40;;;8.43;;
10232;SDS011;5161;48.174;11.756;2023-06-22T06:57:36;16.53;;;8.63;;
10232;SDS011;5161;48.174;11.756;2023-06-22T07:00:06;11.93;;;8.17;;
10232;SDS011;5161;48.174;11.756;2023-06-22T07:02:40;13.80;;;8.87;;
10232;SDS011;5161;48.174;11.756;2023-06-22T07:05:06;13.63;;;8.50;;
10232;SDS011;5161;48.174;11.756;2023-06-22T07:07:33;12.67;;;8.93;;
10232;SDS011;5161;48.174;11.756;2023-06-22T07:09:58;15.93;;;9.57;;
10232;SDS011;5161;48.174;11.756;2023-06-22T07:12:24;14.65;;;8.55;;
10232;SDS011;5161;48.174;11.756;2023-06-22T07:14:50;15.88;;;8.68;;
10232;SDS011;5161;48.174;11.756;2023-06-22T07:17:16;16.53;;;8.93;;
10232;SDS011;5161;48.174;11.756;2023-06-22T07:19:42;16.63;;;8.90;;
10232;SDS011;5161;48.174;11.756;2023-06-22T07:22:07;16.00;;;8.90;;
10232;SDS011;5161;48.174;11.756;2023-06-22T07:24:33;15.63;;;9.32;;
10232;SDS011;5161;48.174;11.756;2023-06-22T07:26:58;15.93;;;9.20;;
10232;SDS011;5161;48.174;11.756;2023-06-22T07:29:24;12.82;;;9.02;;
10232;SDS011;5161;48.174;11.756;2023-06-22T07:31:51;14.48;;;9.60;;
10232;SDS011;5161;48.174;11.756;2023-06-22T07:34:17;18.20;;;9.43;;
10232;SDS011;5161;48.174;11.756;2023-06-22T07:36:43;13.55;;;8.77;;
10232;SDS011;5161;48.174;11.756;2023-06-22T07:39:09;15.63;;;9.48;;
10232;SDS011;5161;48.174;11.756;2023-06-22T07:41:34;13.50;;;9.30;;
10232;SDS011;5161;48.174;11.756;2023-06-22T07:44:01;16.40;;;9.70;;
10232;SDS011;5161;48.174;11.756;2023-06-22T07:46:28;13.82;;;8.73;;
10232;SDS011;5161;48.174;11.756;2023-06-22T07:48:55;18.50;;;9.73;;
10232;SDS011;5161;48.174;11.756;2023-06-22T07:51:24;16.08;;;9.55;;
10232;SDS011;5161;48.174;11.756;2023-06-22T07:53:50;14.15;;;9.38;;
10232;SDS011;5161;48.174;11.756;2023-06-22T07:56:15;15.73;;;9.07;;
10232;SDS011;5161;48.174;11.756;2023-06-22T07:58:44;15.13;;;9.07;;
10232;SDS011;5161;48.174;11.756;2023-06-22T08:01:11;17.13;;;9.35;;
10232;SDS011;5161;48.174;11.756;2023-06-22T08:03:37;14.77;;;8.95;;
10232;SDS011;5161;48.174;11.756;2023-06-22T08:06:03;12.52;;;8.82;;
10232;SDS011;5161;48.174;11.756;2023-06-22T08:08:28;14.15;;;8.77;;
10232;SDS011;5161;48.174;11.756;2023-06-22T08:10:54;17.27;;;9.13;;
10232;SDS011;5161;48.174;11.756;2023-06-22T08:13:19;14.27;;;9.20;;
10232;SDS011;5161;48.174;11.756;2023-06-22T08:15:45;12.32;;;8.45;;
10232;SDS011;5161;48.174;11.756;2023-06-22T08:18:11;15.63;;;8.90;;
10232;SDS011;5161;48.174;11.756;2023-06-22T08:20:36;13.10;;;8.88;;
10232;SDS011;5161;48.174;11.756;2023-06-22T08:23:02;15.80;;;8.90;;
10232;SDS011;5161;48.174;11.756;2023-06-22T08:25:31;18.45;;;9.27;;
10232;SDS011;5161;48.174;11.756;2023-06-22T08:27:58;16.40;;;9.05;;
10232;SDS011;5161;48.174;11.756;2023-06-22T08:30:23;11.85;;;9.00;;
10232;SDS011;5161;48.174;11.756;2023-06-22T08:32:49;12.95;;;8.88;;
10232;SDS011;5161;48.174;11.756;2023-06-22T08:35:14;15.80;;;8.88;;
10232;SDS011;5161;48.174;11.756;2023-06-22T08:37:40;18.23;;;9.20;;
10232;SDS011;5161;48.174;11.756;2023-06-22T08:40:07;12.75;;;8.82;;
10232;SDS011;5161;48.174;11.756;2023-06-22T08:42:34;15.70;;;9.05;;
10232;SDS011;5161;48.174;11.756;2023-06-22T08:45:00;14.50;;;8.60;;
10232;SDS011;5161;48.174;11.756;2023-06-22T08:47:29;16.35;;;8.85;;
10232;SDS011;5161;48.174;11.756;2023-06-22T08:49:55;16.27;;;8.82;;
10232;SDS011;5161;48.174;11.756;2023-06-22T08:52:21;17.50;;;9.45;;
10232;SDS011;5161;48.174;11.756;2023-06-22T08:54:48;17.80;;;9.68;;
10232;SDS011;5161;48.174;11.756;2023-06-22T08:57:14;15.23;;;9.52;;
10232;SDS011;5161;48.174;11.756;2023-06-22T08:59:39;15.95;;;9.18;;
10232;SDS011;5161;48.174;11.756;2023-06-22T09:02:05;17.52;;;9.05;;
10232;SDS011;5161;48.174;11.756;2023-06-22T09:04:31;13.15;;;8.93;;
10232;SDS011;5161;48.174;11.756;2023-06-22T09:06:59;12.93;;;9.27;;
10232;SDS011;5161;48.174;11.756;2023-06-22T09:09:25;11.60;;;9.07;;
10232;SDS011;5161;48.174;11.756;2023-06-22T09:11:51;14.80;;;9.20;;
10232;SDS011;5161;48.174;11.756;2023-06-22T09:14:16;13.77;;;9.15;;
10232;SDS011;5161;48.174;11.756;2023-06-22T09:16:42;14.65;;;9.02;;
10232;SDS011;5161;48.174;11.756;2023-06-22T09:19:08;15.43;;;9.00;;
10232;SDS011;5161;48.174;11.756;2023-06-22T09:21:33;11.07;;;9.05;;
10232;SDS011;5161;48.174;11.756;2023-06-22T09:23:59;15.48;;;9.77;;
10232;SDS011;5161;48.174;11.756;2023-06-22T09:26:24;15.57;;;9.20;;
10232;SDS011;5161;48.174;11.756;2023-06-22T09:28:50;17.55;;;9.00;;
10232;SDS011;5161;48.174;11.756;2023-06-22T09:31:16;15.65;;;9.43;;
10232;SDS011;5161;48.174;11.756;2023-06-22T09:33:42;15.30;;;9.57;;
10232;SDS011;5161;48.174;11.756;2023-06-22T09:36:07;13.85;;;8.80;;
10232;SDS011;5161;48.174;11.756;2023-06-22T09:38:36;13.32;;;9.43;;
10232;SDS011;5161;48.174;11.756;2023-06-22T09:41:02;16.58;;;9.52;;
10232;SDS011;5161;48.174;11.756;2023-06-22T09:43:28;15.13;;;9.50;;
10232;SDS011;5161;48.174;11.756;2023-06-22T09:45:54;13.93;;;9.68;;
10232;SDS011;5161;48.174;11.756;2023-06-22T09:48:20;21.80;;;9.43;;
10232;SDS011;5161;48.174;11.756;2023-06-22T09:50:45;16.77;;;9.13;;
10232;SDS011;5161;48.174;11.756;2023-06-22T09:53:11;18.38;;;9.85;;
10232;SDS011;5161;48.174;11.756;2023-06-22T09:55:37;15.63;;;9.10;;
10232;SDS011;5161;48.174;11.756;2023-06-22T09:58:02;15.63;;;9.38;;
10232;SDS011;5161;48.174;11.756;2023-06-22T10:00:28;14.05;;;9.65;;
10232;SDS011;5161;48.174;11.756;2023-06-22T10:02:53;12.50;;;9.00;;
10232;SDS011;5161;48.174;11.756;2023-06-22T10:05:20;17.60;;;9.55;;
10232;SDS011;5161;48.174;11.756;2023-06-22T10:07:46;16.45;;;9.93;;
10232;SDS011;5161;48.174;11.756;2023-06-22T10:10:12;15.25;;;9.60;;
10232;SDS011;5161;48.174;11.756;2023-06-22T10:12:41;13.95;;;9.35;;
10232;SDS011;5161;48.174;11.756;2023-06-22T10:15:08;14.10;;;8.93;;
10232;SDS011;5161;48.174;11.756;2023-06-22T10:17:34;17.52;;;9.77;;
10232;SDS011;5161;48.174;11.756;2023-06-22T10:20:00;15.15;;;9.80;;
10232;SDS011;5161;48.174;11.756;2023-06-22T10:22:30;19.27;;;9.40;;
10232;SDS011;5161;48.174;11.756;2023-06-22T10:24:55;16.92;;;10.40;;
10232;SDS011;5161;48.174;11.756;2023-06-22T10:27:21;14.20;;;9.50;;
10232;SDS011;5161;48.174;11.756;2023-06-22T10:29:47;17.45;;;10.30;;
10232;SDS011;5161;48.174;11.756;2023-06-22T10:32:12;14.98;;;9.73;;
10232;SDS011;5161;48.174;11.756;2023-06-22T10:34:38;16.50;;;9.90;;
10232;SDS011;5161;48.174;11.756;2023-06-22T10:37:03;15.70;;;10.15;;
10232;SDS011;5161;48.174;11.756;2023-06-22T10:39:29;13.88;;;9.88;;
10232;SDS011;5161;48.174;11.756;2023-06-22T10:41:55;12.77;;;9.98;;
10232;SDS011;5161;48.174;11.756;2023-06-22T10:44:21;19.00;;;10.13;;
10232;SDS011;5161;48.174;11.756;2023-06-22T10:46:46;17.17;;;10.07;;
10232;SDS011;5161;48.174;11.756;2023-06-22T10:49:12;20.77;;;10.13;;
10232;SDS011;5161;48.174;11.756;2023-06-22T10:51:37;16.52;;;9.80;;
10232;SDS011;5161;48.174;11.756;2023-06-22T10:54:03;13.25;;;10.50;;
10232;SDS011;5161;48.174;11.756;2023-06-22T10:56:29;19.55;;;10.48;;
10232;SDS011;5161;48.174;11.756;2023-06-22T10:58:55;15.48;;;10.52;;
10232;SDS011;5161;48.174;11.756;2023-06-22T11:01:20;18.85;;;9.93;;
10232;SDS011;5161;48.174;11.756;2023-06-22T11:03:46;20.13;;;10.25;;
10232;SDS011;5161;48.174;11.756;2023-06-22T11:06:11;18.23;;;10.15;;
10232;SDS011;5161;48.174;11.756;2023-06-22T11:08:39;18.15;;;10.80;;
10232;SDS011;5161;48.174;11.756;2023-06-22T11:11:05;19.02;;;10.45;;
10232;SDS011;5161;48.174;11.756;2023-06-22T11:13:30;15.30;;;10.20;;
10232;SDS011;5161;48.174;11.756;2023-06-22T11:15:56;18.80;;;10.13;;
10232;SDS011;5161;48.174;11.756;2023-06-22T11:18:21;21.30;;;10.85;;
10232;SDS011;5161;48.174;11.756;2023-06-22T11:20:48;20.60;;;9.90;;
10232;SDS011;5161;48.174;11.756;2023-06-22T11:23:14;16.38;;;10.68;;
10232;SDS011;5161;48.174;11.756;2023-06-22T11:25:39;16.27;;;10.05;;
10232;SDS011;5161;48.174;11.756;2023-06-22T11:28:07;17.75;;;10.15;;
10232;SDS011;5161;48.174;11.756;2023-06-22T11:30:33;19.10;;;10.70;;
10232;SDS011;5161;48.174;11.756;2023-06-22T11:32:59;16.05;;;10.25;;
10232;SDS011;5161;48.174;11.756;2023-06-22T11:35:25;17.98;;;10.23;;
10232;SDS011;5161;48.174;11.756;2023-06-22T11:37:50;20.75;;;10.25;;
10232;SDS011;5161;48.174;11.756;2023-06-22T11:40:16;15.15;;;10.10;;
10232;SDS011;5161;48.174;11.756;2023-06-22T11:42:42;16.92;;;10.10;;
10232;SDS011;5161;48.174;11.756;2023-06-22T11:45:08;15.35;;;9.68;;
10232;SDS011;5161;48.174;11.756;2023-06-22T11:47:34;19.67;;;10.07;;
10232;SDS011;5161;48.174;11.756;2023-06-22T11:50:00;19.17;;;9.93;;
10232;SDS011;5161;48.174;11.756;2023-06-22T11:52:25;18.27;;;9.80;;
10232;SDS011;5161;48.174;11.756;2023-06-22T11:54:52;19.02;;;9.63;;
10232;SDS011;5161;48.174;11.756;2023-06-22T11:57:17;17.50;;;9.30;;
10232;SDS011;5161;48.174;11.756;2023-06-22T11:59:43;20.00;;;9.57;;
10232;SDS011;5161;48.174;11.756;2023-06-22T12:02:08;14.07;;;8.75;;
10232;SDS011;5161;48.174;11.756;2023-06-22T12:04:34;16.67;;;9.35;;
10232;SDS011;5161;48.174;11.756;2023-06-22T12:07:00;20.42;;;9.98;;
10232;SDS011;5161;48.174;11.756;2023-06-22T12:09:25;17.63;;;9.00;;
10232;SDS011;5161;48.174;11.756;2023-06-22T12:11:51;15.80;;;9.30;;
10232;SDS011;5161;48.174;11.756;2023-06-22T12:14:17;15.50;;;9.60;;
10232;SDS011;5161;48.174;11.756;2023-06-22T12:16:42;17.70;;;9.90;;
10232;SDS011;5161;48.174;11.756;2023-06-22T12:19:09;19.77;;;9.15;;
10232;SDS011;5161;48.174;11.756;2023-06-22T12:21:34;17.05;;;9.32;;
10232;SDS011;5161;48.174;11.756;2023-06-22T12:24:00;19.05;;;9.70;;
10232;SDS011;5161;48.174;11.756;2023-06-22T12:26:25;16.58;;;9.82;;
10232;SDS011;5161;48.174;11.756;2023-06-22T12:28:51;17.55;;;9.13;;
10232;SDS011;5161;48.174;11.756;2023-06-22T12:31:16;16.50;;;9.82;;
10232;SDS011;5161;48.174;11.756;2023-06-22T12:33:42;17.80;;;9.73;;
10232;SDS011;5161;48.174;11.756;2023-06-22T12:36:08;21.85;;;9.95;;
10232;SDS011;5161;48.174;11.756;2023-06-22T12:38:33;20.63;;;9.82;;
10232;SDS011;5161;48.174;11.756;2023-06-22T12:40:59;14.55;;;9.02;;
10232;SDS011;5161;48.174;11.756;2023-06-22T12:43:24;18.50;;;8.85;;
10232;SDS011;5161;48.174;11.756;2023-06-22T12:45:50;21.38;;;9.90;;
10232;SDS011;5161;48.174;11.756;2023-06-22T12:48:15;16.38;;;9.50;;
10232;SDS011;5161;48.174;11.756;2023-06-22T12:50:42;18.35;;;9.40;;
10232;SDS011;5161;48.174;11.756;2023-06-22T12:53:07;15.77;;;8.75;;
10232;SDS011;5161;48.174;11.756;2023-06-22T12:55:33;21.70;;;10.10;;
10232;SDS011;5161;48.174;11.756;2023-06-22T12:57:58;14.52;;;9.48;;
10232;SDS011;5161;48.174;11.756;2023-06-22T13:00:24;20.30;;;9.40;;
10232;SDS011;5161;48.174;11.756;2023-06-22T13:02:50;16.58;;;9.15;;
10232;SDS011;5161;48.174;11.756;2023-06-22T13:05:15;13.07;;;8.73;;
10232;SDS011;5161;48.174;11.756;2023-06-22T13:07:41;19.25;;;9.88;;
10232;SDS011;5161;48.174;11.756;2023-06-22T13:10:07;18.98;;;8.80;;
10232;SDS011;5161;48.174;11.756;2023-06-22T13:12:33;15.35;;;9.50;;
10232;SDS011;5161;48.174;11.756;2023-06-22T13:14:59;19.58;;;8.68;;
10232;SDS011;5161;48.174;11.756;2023-06-22T13:17:24;17.13;;;8.85;;
10232;SDS011;5161;48.174;11.756;2023-06-22T13:19:50;17.20;;;8.73;;
10232;SDS011;5161;48.174;11.756;2023-06-22T13:22:25;15.70;;;8.73;;
10232;SDS011;5161;48.174;11.756;2023-06-22T13:24:53;17.25;;;8.63;;
10232;SDS011;5161;48.174;11.756;2023-06-22T13:27:19;17.00;;;8.88;;
10232;SDS011;5161;48.174;11.756;2023-06-22T13:29:45;15.18;;;8.90;;
10232;SDS011;5161;48.174;11.756;2023-06-22T13:32:10;16.95;;;8.80;;
10232;SDS011;5161;48.174;11.756;2023-06-22T13:34:36;17.67;;;8.68;;
10232;SDS011;5161;48.174;11.756;2023-06-22T13:37:01;16.73;;;8.38;;
10232;SDS011;5161;48.174;11.756;2023-06-22T13:39:27;15.73;;;9.23;;
10232;SDS011;5161;48.174;11.756;2023-06-22T13:41:53;15.63;;;8.82;;
10232;SDS011;5161;48.174;11.756;2023-06-22T13:44:18;17.70;;;8.75;;
10232;SDS011;5161;48.174;11.756;2023-06-22T13:46:44;18.77;;;9.02;;
10232;SDS011;5161;48.174;11.756;2023-06-22T13:49:10;20.38;;;8.63;;
10232;SDS011;5161;48.174;11.756;2023-06-22T13:51:36;20.15;;;9.10;;
10232;SDS011;5161;48.174;11.756;2023-06-22T13:54:01;14.40;;;8.90;;
10232;SDS011;5161;48.174;11.756;2023-06-22T13:56:27;24.77;;;9.50;;
10232;SDS011;5161;48.174;11.756;2023-06-22T13:58:52;21.65;;;9.02;;
10232;SDS011;5161;48.174;11.756;2023-06-22T14:01:18;16.85;;;9.05;;
10232;SDS011;5161;48.174;11.756;2023-06-22T14:03:43;15.00;;;8.60;;
10232;SDS011;5161;48.174;11.756;2023-06-22T14:06:11;21.35;;;8.45;;
10232;SDS011;5161;48.174;11.756;2023-06-22T14:08:37;14.20;;;8.55;;
10232;SDS011;5161;48.174;11.756;2023-06-22T14:11:03;15.05;;;8.82;;
10232;SDS011;5161;48.174;11.756;2023-06-22T14:13:29;16.35;;;8.25;;
10232;SDS011;5161;48.174;11.756;2023-06-22T14:15:54;15.25;;;8.52;;
10232;SDS011;5161;48.174;11.756;2023-06-22T14:18:20;14.35;;;8.20;;
10232;SDS011;5161;48.174;11.756;2023-06-22T14:20:47;17.42;;;8.95;;
10232;SDS011;5161;48.174;11.756;2023-06-22T14:23:13;16.73;;;8.00;;
10232;SDS011;5161;48.174;11.756;2023-06-22T14:25:39;12.07;;;8.10;;
10232;SDS011;5161;48.174;11.756;2023-06-22T14:28:05;15.10;;;8.07;;
10232;SDS011;5161;48.174;11.756;2023-06-22T14:30:30;15.40;;;8.65;;
10232;SDS011;5161;48.174;11.756;2023-06-22T14:32:56;17.05;;;8.80;;
10232;SDS011;5161;48.174;11.756;2023-06-22T14:35:21;19.33;;;8.60;;
10232;SDS011;5161;48.174;11.756;2023-06-22T14:37:47;15.18;;;8.70;;